createdAt,value
2017-07-18T00:01:24.856Z,20.80
2017-07-18T00:03:52.417Z,20.70
2017-07-18T00:06:20.044Z,20.70
2017-07-18T00:08:48.343Z,20.70
2017-07-18T00:11:15.873Z,20.70
2017-07-18T00:13:44.229Z,20.80
2017-07-18T00:16:12.582Z,21.00
2017-07-18T00:18:40.126Z,20.90
2017-07-18T00:21:07.697Z,21.00
2017-07-18T00:23:35.281Z,20.80
2017-07-18T00:26:02.915Z,20.90
2017-07-18T00:28:30.496Z,20.90
2017-07-18T00:30:58.046Z,20.70
2017-07-18T00:33:25.595Z,20.70
2017-07-18T00:35:53.170Z,20.60
2017-07-18T00:38:20.779Z,20.70
2017-07-18T00:40:48.384Z,20.60
2017-07-18T00:43:15.985Z,20.60
2017-07-18T00:45:43.624Z,20.50
2017-07-18T00:48:11.988Z,20.40
2017-07-18T00:50:39.776Z,20.40
2017-07-18T00:53:08.089Z,20.50
2017-07-18T00:55:35.628Z,20.40
2017-07-18T00:58:03.217Z,20.50
2017-07-18T01:00:30.838Z,20.60
2017-07-18T01:02:58.394Z,20.70
2017-07-18T01:05:25.940Z,20.70
2017-07-18T01:07:54.288Z,20.60
2017-07-18T01:10:21.889Z,20.60
2017-07-18T01:12:49.583Z,20.50
2017-07-18T01:15:17.270Z,20.50
2017-07-18T01:17:44.814Z,20.50
2017-07-18T01:20:12.490Z,20.30
2017-07-18T01:22:40.188Z,20.40
2017-07-18T01:25:07.786Z,20.30
2017-07-18T01:27:35.340Z,20.20
2017-07-18T01:30:02.891Z,20.10
2017-07-18T01:32:30.479Z,20.10
2017-07-18T01:34:58.025Z,20.00
2017-07-18T01:37:25.573Z,20.10
2017-07-18T01:39:53.147Z,20.10
2017-07-18T01:42:20.696Z,20.10
2017-07-18T01:44:48.236Z,20.10
2017-07-18T01:47:15.809Z,19.90
2017-07-18T01:49:43.441Z,19.90
2017-07-18T01:52:11.031Z,20.00
2017-07-18T01:54:38.619Z,19.80
2017-07-18T01:57:06.931Z,19.60
2017-07-18T01:59:34.526Z,19.60
2017-07-18T02:02:02.068Z,19.50
2017-07-18T02:04:29.704Z,19.40
2017-07-18T02:06:57.261Z,19.40
2017-07-18T02:09:24.868Z,19.40
2017-07-18T02:11:52.521Z,19.40
2017-07-18T02:14:20.066Z,19.40
2017-07-18T02:16:47.617Z,19.50
2017-07-18T02:19:15.380Z,19.50
2017-07-18T02:21:42.912Z,19.50
2017-07-18T02:24:10.520Z,19.40
2017-07-18T02:26:38.056Z,19.40
2017-07-18T02:29:05.787Z,19.30
2017-07-18T02:31:33.360Z,19.30
2017-07-18T02:34:00.900Z,19.30
2017-07-18T02:36:28.614Z,19.20
2017-07-18T02:38:56.153Z,19.20
2017-07-18T02:41:23.693Z,19.10
2017-07-18T02:43:51.285Z,19.20
2017-07-18T02:46:18.982Z,19.20
2017-07-18T02:48:47.394Z,19.10
2017-07-18T02:51:14.968Z,19.10
2017-07-18T02:53:42.522Z,19.10
2017-07-18T02:56:10.094Z,19.20
2017-07-18T02:58:37.642Z,19.20
2017-07-18T03:01:05.198Z,19.10
2017-07-18T03:03:32.826Z,19.20
2017-07-18T03:06:00.375Z,19.10
2017-07-18T03:08:28.706Z,19.10
2017-07-18T03:10:56.278Z,19.10
2017-07-18T03:13:24.006Z,19.10
2017-07-18T03:15:51.579Z,19.10
2017-07-18T03:18:19.133Z,19.20
2017-07-18T03:20:46.885Z,19.30
2017-07-18T03:23:14.458Z,19.40
2017-07-18T03:25:42.023Z,19.40
2017-07-18T03:28:09.581Z,19.40
2017-07-18T03:30:37.153Z,19.40
2017-07-18T03:33:04.732Z,19.30
2017-07-18T03:35:33.077Z,19.30
2017-07-18T03:38:00.626Z,19.30
2017-07-18T03:40:28.182Z,19.30
2017-07-18T03:42:55.763Z,19.30
2017-07-18T03:45:23.312Z,19.30
2017-07-18T03:47:50.862Z,19.30
2017-07-18T03:50:18.530Z,19.30
2017-07-18T03:52:46.108Z,19.30
2017-07-18T03:55:13.652Z,19.20
2017-07-18T03:57:41.240Z,19.10
2017-07-18T04:00:09.624Z,19.10
2017-07-18T04:02:37.935Z,19.10
2017-07-18T04:05:05.524Z,19.10
2017-07-18T04:07:33.064Z,19.00
2017-07-18T04:10:00.662Z,19.00
2017-07-18T04:12:29.012Z,18.80
2017-07-18T04:14:56.546Z,18.70
2017-07-18T04:17:24.244Z,18.80
2017-07-18T04:19:51.871Z,18.70
2017-07-18T04:22:19.419Z,18.70
2017-07-18T04:24:47.107Z,18.80
2017-07-18T04:27:14.650Z,18.80
2017-07-18T04:29:42.226Z,18.80
2017-07-18T04:32:09.905Z,18.90
2017-07-18T04:34:38.236Z,18.90
2017-07-18T04:37:05.853Z,18.80
2017-07-18T04:39:34.230Z,18.80
2017-07-18T04:42:02.590Z,18.80
2017-07-18T04:44:30.133Z,18.80
2017-07-18T04:46:57.714Z,18.90
2017-07-18T04:49:25.366Z,18.90
2017-07-18T04:51:52.926Z,18.90
2017-07-18T04:54:20.464Z,18.90
2017-07-18T04:56:48.018Z,18.90
2017-07-18T04:59:15.566Z,19.00
2017-07-18T05:01:43.152Z,19.00
2017-07-18T05:04:10.706Z,19.10
2017-07-18T05:06:38.258Z,19.10
2017-07-18T05:09:05.838Z,19.20
2017-07-18T05:11:34.217Z,19.10
2017-07-18T05:14:02.568Z,19.20
2017-07-18T05:16:30.213Z,19.10
2017-07-18T05:18:57.752Z,19.10
2017-07-18T05:21:25.444Z,19.10
2017-07-18T05:23:53.121Z,19.20
2017-07-18T05:26:20.738Z,19.30
2017-07-18T05:28:48.290Z,19.30
2017-07-18T05:31:15.878Z,19.40
2017-07-18T05:33:43.603Z,19.50
2017-07-18T05:36:11.154Z,19.40
2017-07-18T05:38:38.738Z,19.30
2017-07-18T05:41:06.433Z,19.50
2017-07-18T05:43:33.993Z,19.70
2017-07-18T05:46:01.570Z,19.70
2017-07-18T05:48:29.890Z,19.80
2017-07-18T05:50:57.618Z,19.70
2017-07-18T05:53:25.936Z,20.00
2017-07-18T05:55:53.481Z,20.00
2017-07-18T05:58:21.058Z,20.00
2017-07-18T06:00:48.759Z,20.00
2017-07-18T06:03:17.089Z,20.10
2017-07-18T06:05:44.669Z,20.10
2017-07-18T06:08:12.274Z,20.30
2017-07-18T06:10:39.895Z,20.40
2017-07-18T06:13:07.439Z,20.40
2017-07-18T06:15:35.027Z,20.50
2017-07-18T06:18:03.333Z,20.60
2017-07-18T06:20:30.890Z,20.60
2017-07-18T06:22:58.482Z,20.80
2017-07-18T06:25:26.031Z,20.90
2017-07-18T06:27:53.617Z,21.00
2017-07-18T06:30:21.211Z,21.20
2017-07-18T06:32:48.751Z,21.30
2017-07-18T06:35:17.125Z,21.40
2017-07-18T06:37:45.467Z,21.40
2017-07-18T06:40:13.020Z,21.40
2017-07-18T06:42:40.611Z,21.60
2017-07-18T06:45:08.159Z,21.90
2017-07-18T06:47:35.709Z,22.00
2017-07-18T06:50:03.296Z,22.10
2017-07-18T06:52:31.615Z,22.00
2017-07-18T06:54:59.207Z,22.00
2017-07-18T06:57:26.765Z,22.10
2017-07-18T06:59:54.429Z,22.20
2017-07-18T07:02:22.088Z,22.50
2017-07-18T07:04:49.677Z,23.10
2017-07-18T07:07:18.026Z,23.50
2017-07-18T07:09:45.625Z,23.50
2017-07-18T07:12:13.207Z,23.40
2017-07-18T07:14:40.854Z,23.80
2017-07-18T07:17:08.469Z,26.00
2017-07-18T07:19:36.802Z,28.30
2017-07-18T07:22:04.373Z,28.30
2017-07-18T07:24:31.961Z,28.70
2017-07-18T07:26:59.583Z,29.40
2017-07-18T07:29:27.124Z,30.10
2017-07-18T07:31:54.731Z,30.50
2017-07-18T07:34:22.295Z,31.40
2017-07-18T07:36:49.896Z,31.70
2017-07-18T07:39:17.571Z,29.50
2017-07-18T07:41:45.128Z,30.70
2017-07-18T07:44:12.723Z,31.20
2017-07-18T07:46:40.261Z,31.10
2017-07-18T07:49:07.813Z,30.70
2017-07-18T07:51:35.413Z,30.40
2017-07-18T07:54:02.964Z,30.40
2017-07-18T07:56:30.506Z,31.90
2017-07-18T07:58:58.098Z,32.50
2017-07-18T08:01:25.662Z,33.80
2017-07-18T08:03:54.001Z,33.50
2017-07-18T08:06:21.630Z,33.50
2017-07-18T08:08:49.179Z,33.10
2017-07-18T08:11:16.689Z,33.70
2017-07-18T08:13:44.266Z,33.70
2017-07-18T08:16:12.594Z,32.70
2017-07-18T08:18:40.261Z,32.60
2017-07-18T08:21:07.814Z,33.30
2017-07-18T08:23:35.359Z,34.10
2017-07-18T08:26:02.981Z,34.40
2017-07-18T08:28:30.538Z,32.80
2017-07-18T08:30:58.836Z,31.00
2017-07-18T08:33:26.441Z,31.00
2017-07-18T08:35:54.007Z,32.80
2017-07-18T08:38:21.556Z,31.80
2017-07-18T08:40:49.130Z,31.90
2017-07-18T08:43:16.721Z,33.90
2017-07-18T08:45:44.269Z,32.70
2017-07-18T08:48:11.806Z,34.40
2017-07-18T08:50:40.175Z,34.30
2017-07-18T08:53:07.724Z,34.30
2017-07-18T08:55:35.278Z,33.90
2017-07-18T08:58:02.869Z,33.80
2017-07-18T09:00:31.166Z,33.40
2017-07-18T09:02:58.701Z,33.40
2017-07-18T09:05:27.043Z,32.80
2017-07-18T09:07:54.591Z,32.70
2017-07-18T09:10:22.240Z,33.20
2017-07-18T09:12:49.795Z,32.30
2017-07-18T09:15:17.336Z,32.90
2017-07-18T09:17:44.942Z,33.40
2017-07-18T09:20:12.499Z,34.00
2017-07-18T09:22:40.065Z,33.30
2017-07-18T09:25:07.676Z,33.60
2017-07-18T09:27:35.285Z,33.60
2017-07-18T09:30:02.832Z,34.00
2017-07-18T09:32:30.369Z,34.10
2017-07-18T09:34:57.961Z,35.80
2017-07-18T09:37:25.542Z,35.40
2017-07-18T09:39:53.863Z,34.00
2017-07-18T09:42:21.406Z,33.80
2017-07-18T09:44:48.987Z,35.80
2017-07-18T09:47:16.702Z,36.50
2017-07-18T09:49:44.242Z,34.70
2017-07-18T09:52:12.598Z,34.60
2017-07-18T09:54:40.149Z,34.60
2017-07-18T09:57:07.698Z,34.70
2017-07-18T09:59:35.324Z,34.60
2017-07-18T10:02:02.857Z,34.60
2017-07-18T10:04:31.201Z,34.30
2017-07-18T10:06:58.770Z,34.30
2017-07-18T10:09:26.341Z,34.70
2017-07-18T10:11:54.695Z,35.70
2017-07-18T10:14:22.235Z,35.70
2017-07-18T10:16:49.779Z,35.80
2017-07-18T10:19:17.386Z,35.20
2017-07-18T10:21:44.936Z,35.20
2017-07-18T10:24:12.541Z,36.10
2017-07-18T10:26:40.114Z,35.90
2017-07-18T10:29:07.695Z,35.30
2017-07-18T10:31:35.240Z,35.10
2017-07-18T10:34:02.787Z,35.90
2017-07-18T10:36:30.383Z,36.40
2017-07-18T10:38:57.935Z,35.90
2017-07-18T10:41:25.482Z,36.40
2017-07-18T10:43:53.061Z,37.20
2017-07-18T10:46:20.647Z,36.70
2017-07-18T10:48:49.051Z,33.60
2017-07-18T10:51:16.614Z,33.50
2017-07-18T10:53:44.257Z,33.40
2017-07-18T10:56:11.836Z,34.80
2017-07-18T10:58:39.386Z,35.20
2017-07-18T11:01:06.954Z,35.40
2017-07-18T11:03:34.545Z,36.10
2017-07-18T11:06:02.118Z,33.30
2017-07-18T11:08:30.463Z,34.10
2017-07-18T11:10:58.014Z,34.00
2017-07-18T11:13:25.561Z,35.00
2017-07-18T11:15:53.242Z,35.50
2017-07-18T11:18:20.802Z,35.90
2017-07-18T11:20:48.391Z,35.50
2017-07-18T11:23:16.707Z,34.60
2017-07-18T11:25:44.290Z,34.60
2017-07-18T11:28:11.958Z,35.00
2017-07-18T11:30:39.506Z,32.50
2017-07-18T11:33:07.090Z,32.30
2017-07-18T11:35:34.637Z,31.90
2017-07-18T11:38:02.227Z,32.30
2017-07-18T11:40:30.538Z,31.70
2017-07-18T11:42:58.097Z,31.70
2017-07-18T11:45:25.684Z,30.80
2017-07-18T11:47:53.269Z,30.80
2017-07-18T11:50:21.594Z,30.60
2017-07-18T11:52:49.126Z,30.60
2017-07-18T11:55:16.749Z,31.60
2017-07-18T11:57:44.293Z,31.70
2017-07-18T12:00:11.834Z,31.50
2017-07-18T12:02:39.497Z,31.20
2017-07-18T12:05:07.063Z,30.10
2017-07-18T12:07:34.643Z,30.50
2017-07-18T12:10:02.189Z,30.30
2017-07-18T12:12:29.731Z,29.90
2017-07-18T12:14:57.304Z,29.60
2017-07-18T12:17:24.854Z,30.10
2017-07-18T12:19:52.394Z,30.50
2017-07-18T12:22:20.041Z,30.50
2017-07-18T12:24:47.611Z,30.40
2017-07-18T12:27:15.311Z,30.60
2017-07-18T12:29:42.970Z,30.40
2017-07-18T12:32:10.505Z,30.90
2017-07-18T12:34:38.091Z,30.60
2017-07-18T12:37:05.631Z,30.80
2017-07-18T12:39:33.182Z,30.90
2017-07-18T12:42:00.757Z,31.40
2017-07-18T12:44:28.316Z,31.50
2017-07-18T12:46:55.861Z,31.20
2017-07-18T12:49:23.458Z,31.70
2017-07-18T12:51:51.779Z,31.60
2017-07-18T12:54:19.485Z,31.50
2017-07-18T12:56:47.832Z,32.40
2017-07-18T12:59:15.373Z,32.30
2017-07-18T13:01:42.963Z,31.50
2017-07-18T13:04:10.513Z,31.20
2017-07-18T13:06:38.066Z,30.70
2017-07-18T13:09:05.667Z,30.40
2017-07-18T13:11:33.979Z,30.60
2017-07-18T13:14:01.528Z,30.50
2017-07-18T13:16:29.123Z,31.00
2017-07-18T13:18:56.675Z,31.30
2017-07-18T13:21:24.298Z,31.50
2017-07-18T13:23:51.878Z,31.60
2017-07-18T13:26:19.459Z,31.70
2017-07-18T13:28:47.009Z,31.60
2017-07-18T13:31:14.557Z,31.30
2017-07-18T13:33:42.145Z,31.30
2017-07-18T13:36:11.221Z,31.80
2017-07-18T13:38:38.783Z,31.80
2017-07-18T13:41:06.334Z,31.70
2017-07-18T13:43:33.904Z,31.80
2017-07-18T13:46:01.461Z,31.00
2017-07-18T13:48:29.028Z,31.20
2017-07-18T13:50:56.594Z,31.10
2017-07-18T13:53:24.964Z,30.40
2017-07-18T13:55:52.501Z,30.40
2017-07-18T13:58:20.051Z,30.80
2017-07-18T14:00:47.612Z,30.80
2017-07-18T14:03:15.193Z,30.90
2017-07-18T14:05:42.779Z,31.00
2017-07-18T14:08:11.094Z,31.20
2017-07-18T14:10:38.638Z,31.20
2017-07-18T14:13:06.243Z,31.50
2017-07-18T14:15:33.783Z,31.30
2017-07-18T14:18:01.385Z,31.30
2017-07-18T14:20:29.706Z,31.90
2017-07-18T14:22:57.317Z,31.90
2017-07-18T14:25:25.668Z,31.50
2017-07-18T14:27:53.236Z,31.50
2017-07-18T14:30:21.556Z,30.70
2017-07-18T14:32:49.150Z,30.70
2017-07-18T14:35:16.692Z,30.50
2017-07-18T14:37:44.317Z,30.40
2017-07-18T14:40:12.047Z,30.60
2017-07-18T14:42:39.622Z,30.70
2017-07-18T14:45:07.930Z,30.50
2017-07-18T14:47:35.510Z,30.50
2017-07-18T14:50:03.047Z,30.60
2017-07-18T14:52:30.625Z,30.50
2017-07-18T14:54:58.176Z,30.40
2017-07-18T14:57:25.718Z,30.50
2017-07-18T14:59:53.280Z,30.40
2017-07-18T15:02:20.958Z,30.10
2017-07-18T15:04:48.534Z,30.00
2017-07-18T15:07:16.073Z,29.90
2017-07-18T15:09:43.619Z,29.90
2017-07-18T15:12:11.218Z,30.00
2017-07-18T15:14:38.761Z,30.10
2017-07-18T15:17:06.317Z,30.10
2017-07-18T15:19:33.902Z,30.30
2017-07-18T15:22:02.229Z,30.80
2017-07-18T15:24:29.800Z,30.80
2017-07-18T15:26:57.372Z,30.90
2017-07-18T15:29:24.916Z,30.90
2017-07-18T15:31:52.538Z,30.90
2017-07-18T15:34:20.092Z,30.90
2017-07-18T15:36:47.640Z,30.80
2017-07-18T15:39:15.991Z,30.90
2017-07-18T15:41:43.539Z,30.90
2017-07-18T15:44:11.089Z,30.90
2017-07-18T15:46:38.696Z,30.90
2017-07-18T15:49:07.001Z,31.20
2017-07-18T15:51:34.598Z,31.20
2017-07-18T15:54:02.145Z,31.40
2017-07-18T15:56:29.685Z,31.20
2017-07-18T15:58:57.271Z,30.90
2017-07-18T16:01:24.815Z,30.70
2017-07-18T16:03:52.401Z,30.40
2017-07-18T16:06:19.960Z,30.40
2017-07-18T16:08:47.668Z,30.40
2017-07-18T16:11:15.305Z,30.50
2017-07-18T16:13:42.859Z,30.70
2017-07-18T16:16:11.166Z,30.10
2017-07-18T16:18:38.736Z,30.10
2017-07-18T16:21:06.292Z,30.00
2017-07-18T16:23:33.866Z,30.30
2017-07-18T16:26:01.422Z,30.20
2017-07-18T16:28:28.975Z,30.30
2017-07-18T16:30:56.557Z,30.40
2017-07-18T16:33:24.962Z,30.40
2017-07-18T16:35:53.332Z,30.10
2017-07-18T16:38:21.641Z,30.30
2017-07-18T16:40:49.181Z,30.20
2017-07-18T16:43:16.863Z,30.20
2017-07-18T16:45:44.423Z,30.30
2017-07-18T16:48:11.971Z,30.20
2017-07-18T16:50:39.562Z,30.20
2017-07-18T16:53:07.123Z,30.30
2017-07-18T16:55:34.710Z,30.20
2017-07-18T16:58:03.033Z,30.30
2017-07-18T17:00:30.594Z,30.20
2017-07-18T17:02:58.200Z,30.30
2017-07-18T17:05:26.522Z,30.20
2017-07-18T17:07:54.116Z,30.20
2017-07-18T17:10:21.719Z,30.00
2017-07-18T17:12:49.304Z,30.00
2017-07-18T17:15:16.903Z,29.90
2017-07-18T17:17:44.461Z,30.00
2017-07-18T17:20:12.043Z,29.90
2017-07-18T17:22:40.348Z,29.80
2017-07-18T17:25:08.006Z,29.80
2017-07-18T17:27:35.606Z,29.70
2017-07-18T17:30:03.133Z,29.70
2017-07-18T17:32:30.783Z,29.70
2017-07-18T17:34:58.355Z,29.70
2017-07-18T17:37:25.910Z,29.90
2017-07-18T17:39:53.459Z,29.90
2017-07-18T17:42:21.192Z,29.80
2017-07-18T17:44:48.806Z,29.60
2017-07-18T17:47:16.354Z,29.50
2017-07-18T17:49:43.903Z,29.40
2017-07-18T17:52:11.482Z,29.40
2017-07-18T17:54:39.036Z,29.40
2017-07-18T17:57:06.784Z,29.40
2017-07-18T17:59:34.326Z,29.60
2017-07-18T18:02:01.875Z,29.50
2017-07-18T18:04:29.482Z,29.40
2017-07-18T18:06:57.018Z,29.40
2017-07-18T18:09:24.579Z,29.30
2017-07-18T18:11:52.162Z,29.40
2017-07-18T18:14:19.714Z,29.30
2017-07-18T18:16:47.294Z,29.30
2017-07-18T18:19:15.648Z,29.20
2017-07-18T18:21:43.237Z,29.20
2017-07-18T18:24:11.673Z,29.30
2017-07-18T18:26:39.214Z,29.20
2017-07-18T18:29:06.762Z,29.20
2017-07-18T18:31:34.363Z,29.10
2017-07-18T18:34:01.927Z,29.00
2017-07-18T18:36:29.504Z,29.00
2017-07-18T18:38:57.842Z,28.90
2017-07-18T18:41:25.387Z,28.90
2017-07-18T18:43:52.974Z,28.90
2017-07-18T18:46:20.521Z,28.90
2017-07-18T18:48:48.089Z,28.90
2017-07-18T18:51:15.657Z,28.90
2017-07-18T18:53:43.305Z,28.80
2017-07-18T18:56:10.902Z,28.80
2017-07-18T18:58:39.310Z,28.60
2017-07-18T19:01:06.907Z,28.60
2017-07-18T19:03:34.623Z,28.60
2017-07-18T19:06:02.163Z,28.50
2017-07-18T19:08:29.777Z,28.50
2017-07-18T19:10:57.511Z,28.40
2017-07-18T19:13:25.106Z,28.40
2017-07-18T19:15:52.780Z,28.40
2017-07-18T19:18:20.400Z,28.40
2017-07-18T19:20:47.977Z,28.30
2017-07-18T19:23:15.525Z,28.30
2017-07-18T19:25:43.074Z,28.20
2017-07-18T19:28:10.672Z,28.20
2017-07-18T19:30:38.262Z,28.20
2017-07-18T19:33:05.826Z,28.10
2017-07-18T19:35:33.376Z,28.10
2017-07-18T19:38:01.003Z,28.00
2017-07-18T19:40:28.589Z,28.00
2017-07-18T19:42:56.368Z,27.90
2017-07-18T19:45:23.921Z,28.00
2017-07-18T19:47:51.478Z,27.90
2017-07-18T19:50:19.069Z,27.80
2017-07-18T19:52:46.646Z,27.70
2017-07-18T19:55:14.234Z,27.70
2017-07-18T19:57:42.594Z,27.60
2017-07-18T20:00:10.332Z,27.60
2017-07-18T20:02:37.877Z,27.60
2017-07-18T20:05:05.465Z,27.50
2017-07-18T20:07:33.186Z,27.50
2017-07-18T20:10:00.783Z,27.50
2017-07-18T20:12:28.335Z,27.50
2017-07-18T20:14:55.890Z,27.40
2017-07-18T20:17:23.494Z,27.40
2017-07-18T20:19:51.167Z,27.40
2017-07-18T20:22:18.719Z,27.30
2017-07-18T20:24:46.303Z,27.30
2017-07-18T20:27:13.862Z,27.20
2017-07-18T20:29:41.471Z,27.10
2017-07-18T20:32:09.169Z,27.20
2017-07-18T20:34:36.765Z,27.20
2017-07-18T20:37:04.329Z,27.10
2017-07-18T20:39:32.054Z,27.10
2017-07-18T20:41:59.656Z,27.10
2017-07-18T20:44:27.219Z,27.10
2017-07-18T20:46:55.641Z,27.10
2017-07-18T20:49:23.243Z,27.10
2017-07-18T20:51:50.785Z,26.90
2017-07-18T20:54:18.401Z,26.90
2017-07-18T20:56:46.069Z,26.90
2017-07-18T20:59:13.656Z,26.90
2017-07-18T21:01:41.244Z,26.90
2017-07-18T21:04:08.794Z,26.80
2017-07-18T21:06:36.349Z,26.80
2017-07-18T21:09:03.928Z,26.80
2017-07-18T21:11:32.501Z,26.80
2017-07-18T21:14:00.244Z,26.80
2017-07-18T21:16:27.795Z,26.80
2017-07-18T21:18:55.354Z,26.80
2017-07-18T21:21:22.951Z,26.70
2017-07-18T21:23:51.261Z,26.60
2017-07-18T21:26:18.822Z,26.60
2017-07-18T21:28:46.406Z,26.60
2017-07-18T21:31:14.092Z,26.50
2017-07-18T21:33:41.683Z,26.50
2017-07-18T21:36:09.991Z,26.40
2017-07-18T21:38:37.572Z,26.40
2017-07-18T21:41:05.115Z,26.30
2017-07-18T21:43:32.716Z,26.30
2017-07-18T21:46:00.238Z,26.20
2017-07-18T21:48:27.821Z,26.20
2017-07-18T21:50:55.367Z,26.10
2017-07-18T21:53:23.085Z,26.20
2017-07-18T21:55:50.629Z,26.10
2017-07-18T21:58:18.385Z,26.10
2017-07-18T22:00:46.727Z,25.90
2017-07-18T22:03:14.273Z,25.90
2017-07-18T22:05:41.902Z,25.90
2017-07-18T22:08:09.487Z,25.80
2017-07-18T22:10:37.035Z,25.50
2017-07-18T22:13:04.587Z,25.40
2017-07-18T22:15:32.199Z,25.50
2017-07-18T22:17:59.750Z,25.60
2017-07-18T22:20:27.306Z,25.50
2017-07-18T22:22:54.876Z,25.50
2017-07-18T22:25:23.189Z,25.30
2017-07-18T22:27:50.763Z,25.20
2017-07-18T22:30:18.310Z,25.20
2017-07-18T22:32:45.845Z,25.00
2017-07-18T22:35:13.421Z,25.10
2017-07-18T22:37:40.974Z,25.00
2017-07-18T22:40:08.553Z,25.00
2017-07-18T22:42:36.097Z,24.90
2017-07-18T22:45:03.653Z,24.90
2017-07-18T22:47:31.234Z,24.90
2017-07-18T22:49:58.771Z,24.80
2017-07-18T22:52:26.315Z,24.70
2017-07-18T22:54:53.889Z,24.70
2017-07-18T22:57:21.445Z,24.60
2017-07-18T22:59:49.026Z,24.60
2017-07-18T23:02:16.563Z,24.50
2017-07-18T23:04:44.293Z,24.50
2017-07-18T23:07:12.637Z,24.30
2017-07-18T23:09:40.173Z,24.30
2017-07-18T23:12:07.764Z,24.20
2017-07-18T23:14:35.362Z,24.20
2017-07-18T23:17:02.925Z,24.10
2017-07-18T23:19:30.512Z,24.00
2017-07-18T23:21:58.169Z,24.00
2017-07-18T23:24:25.721Z,24.00
2017-07-18T23:26:53.319Z,24.00
2017-07-18T23:29:20.857Z,23.90
2017-07-18T23:31:48.403Z,23.90
2017-07-18T23:34:15.977Z,23.90
2017-07-18T23:36:43.547Z,23.90
2017-07-18T23:39:11.143Z,23.90
2017-07-18T23:41:38.775Z,23.90
2017-07-18T23:44:07.097Z,23.50
2017-07-18T23:46:34.677Z,23.50
2017-07-18T23:49:02.244Z,23.40
2017-07-18T23:51:29.837Z,23.30
2017-07-18T23:53:58.148Z,23.40
2017-07-18T23:56:25.715Z,23.30
2017-07-18T23:58:53.294Z,23.30
